sensor_id;sensor_type;location;lat;lon;timestamp;pressure;altitude;pressure_sealevel;temperature;humidity
59825;BME280;45703;50.898;6.054;2022-12-07T00:00:54;100418.34;;;4.97;100.00
59825;BME280;45703;50.898;6.054;2022-12-07T00:03:20;100419.34;;;4.96;100.00
59825;BME280;45703;50.898;6.054;2022-12-07T00:05:45;100410.22;;;4.98;100.00
59825;BME280;45703;50.898;6.054;2022-12-07T00:08:10;100412.69;;;5.00;100.00
59825;BME280;45703;50.898;6.054;2022-12-07T00:10:36;100396.97;;;4.84;100.00
59825;BME280;45703;50.898;6.054;2022-12-07T00:13:01;100407.50;;;4.92;100.00
59825;BME280;45703;50.898;6.054;2022-12-07T00:15:27;100404.84;;;4.92;100.00
59825;BME280;45703;50.898;6.054;2022-12-07T00:17:52;100407.75;;;4.97;100.00
59825;BME280;45703;50.898;6.054;2022-12-07T00:20:17;100408.56;;;4.97;100.00
59825;BME280;45703;50.898;6.054;2022-12-07T00:22:43;100403.38;;;5.04;100.00
59825;BME280;45703;50.898;6.054;2022-12-07T00:25:08;100400.19;;;5.08;100.00
59825;BME280;45703;50.898;6.054;2022-12-07T00:27:33;100396.72;;;5.08;100.00
59825;BME280;45703;50.898;6.054;2022-12-07T00:29:59;100396.81;;;5.00;100.00
59825;BME280;45703;50.898;6.054;2022-12-07T00:32:24;100396.81;;;5.00;100.00
59825;BME280;45703;50.898;6.054;2022-12-07T00:34:49;100392.06;;;4.95;100.00
59825;BME280;45703;50.898;6.054;2022-12-07T00:37:15;100382.59;;;5.01;100.00
59825;BME280;45703;50.898;6.054;2022-12-07T00:39:40;100388.03;;;4.99;100.00
59825;BME280;45703;50.898;6.054;2022-12-07T00:42:05;100386.78;;;4.95;100.00
59825;BME280;45703;50.898;6.054;2022-12-07T00:44:31;100392.53;;;4.99;100.00
59825;BME280;45703;50.898;6.054;2022-12-07T00:46:56;100392.81;;;5.04;100.00
59825;BME280;45703;50.898;6.054;2022-12-07T00:49:22;100393.25;;;4.93;100.00
59825;BME280;45703;50.898;6.054;2022-12-07T00:51:50;100398.38;;;5.09;100.00
59825;BME280;45703;50.898;6.054;2022-12-07T00:54:15;100395.53;;;4.96;100.00
59825;BME280;45703;50.898;6.054;2022-12-07T00:56:41;100395.19;;;4.99;100.00
59825;BME280;45703;50.898;6.054;2022-12-07T00:59:06;100384.50;;;5.07;100.00
59825;BME280;45703;50.898;6.054;2022-12-07T01:01:35;100373.38;;;4.97;100.00
59825;BME280;45703;50.898;6.054;2022-12-07T01:04:02;100386.59;;;4.97;100.00
59825;BME280;45703;50.898;6.054;2022-12-07T01:06:28;100382.31;;;4.96;100.00
59825;BME280;45703;50.898;6.054;2022-12-07T01:08:54;100391.69;;;4.98;100.00
59825;BME280;45703;50.898;6.054;2022-12-07T01:11:22;100393.91;;;4.95;100.00
59825;BME280;45703;50.898;6.054;2022-12-07T01:13:50;100387.78;;;4.94;100.00
59825;BME280;45703;50.898;6.054;2022-12-07T01:16:16;100394.63;;;4.89;100.00
59825;BME280;45703;50.898;6.054;2022-12-07T01:18:43;100390.41;;;4.94;100.00
59825;BME280;45703;50.898;6.054;2022-12-07T01:21:13;100388.97;;;4.92;100.00
59825;BME280;45703;50.898;6.054;2022-12-07T01:23:39;100384.69;;;4.91;100.00
59825;BME280;45703;50.898;6.054;2022-12-07T01:26:09;100394.25;;;4.92;100.00
59825;BME280;45703;50.898;6.054;2022-12-07T01:28:36;100404.47;;;4.95;100.00
59825;BME280;45703;50.898;6.054;2022-12-07T01:31:07;100403.38;;;4.89;100.00
59825;BME280;45703;50.898;6.054;2022-12-07T01:33:35;100407.53;;;4.84;100.00
59825;BME280;45703;50.898;6.054;2022-12-07T01:36:03;100394.31;;;4.84;100.00
59825;BME280;45703;50.898;6.054;2022-12-07T01:38:29;100391.03;;;4.82;100.00
59825;BME280;45703;50.898;6.054;2022-12-07T01:40:56;100407.75;;;4.97;100.00
59825;BME280;45703;50.898;6.054;2022-12-07T01:43:23;100398.56;;;4.93;100.00
59825;BME280;45703;50.898;6.054;2022-12-07T01:45:49;100398.72;;;4.91;100.00
59825;BME280;45703;50.898;6.054;2022-12-07T01:48:16;100401.94;;;4.87;100.00
59825;BME280;45703;50.898;6.054;2022-12-07T01:50:44;100401.94;;;4.87;100.00
59825;BME280;45703;50.898;6.054;2022-12-07T01:53:11;100392.59;;;4.76;100.00
59825;BME280;45703;50.898;6.054;2022-12-07T01:55:40;100400.34;;;4.78;100.00
59825;BME280;45703;50.898;6.054;2022-12-07T01:58:07;100398.56;;;4.93;100.00
59825;BME280;45703;50.898;6.054;2022-12-07T02:00:33;100396.03;;;4.77;100.00
59825;BME280;45703;50.898;6.054;2022-12-07T02:03:06;100403.56;;;4.88;100.00
59825;BME280;45703;50.898;6.054;2022-12-07T02:05:34;100390.41;;;4.80;100.00
59825;BME280;45703;50.898;6.054;2022-12-07T02:08:01;100389.41;;;4.81;100.00
59825;BME280;45703;50.898;6.054;2022-12-07T02:10:30;100375.81;;;4.84;100.00
59825;BME280;45703;50.898;6.054;2022-12-07T02:12:59;100379.13;;;4.86;100.00
59825;BME280;45703;50.898;6.054;2022-12-07T02:16:08;100374.47;;;4.88;100.00
59825;BME280;45703;50.898;6.054;2022-12-07T02:21:43;100378.94;;;4.87;100.00
59825;BME280;45703;50.898;6.054;2022-12-07T02:29:27;100370.97;;;4.73;100.00
59825;BME280;45703;50.898;6.054;2022-12-07T02:32:24;100379.53;;;4.75;100.00
59825;BME280;45703;50.898;6.054;2022-12-07T02:35:17;100378.66;;;4.82;100.00
59825;BME280;45703;50.898;6.054;2022-12-07T02:38:08;100369.44;;;4.78;100.00
59825;BME280;45703;50.898;6.054;2022-12-07T02:40:53;100372.34;;;4.83;100.00
59825;BME280;45703;50.898;6.054;2022-12-07T02:43:27;100372.88;;;4.79;100.00
59825;BME280;45703;50.898;6.054;2022-12-07T02:45:57;100371.44;;;4.76;100.00
59825;BME280;45703;50.898;6.054;2022-12-07T02:48:26;100368.25;;;4.81;100.00
59825;BME280;45703;50.898;6.054;2022-12-07T02:50:53;100373.63;;;4.87;100.00
59825;BME280;45703;50.898;6.054;2022-12-07T02:53:29;100371.88;;;4.80;100.00
59825;BME280;45703;50.898;6.054;2022-12-07T02:55:54;100373.88;;;4.78;100.00
59825;BME280;45703;50.898;6.054;2022-12-07T03:01:35;100374.72;;;4.78;100.00
59825;BME280;45703;50.898;6.054;2022-12-07T03:06:49;100366.13;;;4.62;100.00
59825;BME280;45703;50.898;6.054;2022-12-07T03:09:36;100375.63;;;4.71;100.00
59825;BME280;45703;50.898;6.054;2022-12-07T03:12:34;100373.63;;;4.73;100.00
59825;BME280;45703;50.898;6.054;2022-12-07T03:15:13;100375.63;;;4.71;100.00
59825;BME280;45703;50.898;6.054;2022-12-07T03:17:41;100369.41;;;4.64;100.00
59825;BME280;45703;50.898;6.054;2022-12-07T03:20:11;100381.03;;;4.77;100.00
59825;BME280;45703;50.898;6.054;2022-12-07T03:22:39;100374.09;;;4.76;100.00
59825;BME280;45703;50.898;6.054;2022-12-07T03:25:10;100379.38;;;4.76;100.00
59825;BME280;45703;50.898;6.054;2022-12-07T03:27:41;100377.25;;;4.72;100.00
59825;BME280;45703;50.898;6.054;2022-12-07T03:30:11;100372.81;;;4.72;100.00
59825;BME280;45703;50.898;6.054;2022-12-07T03:32:45;100378.09;;;4.72;100.00
59825;BME280;45703;50.898;6.054;2022-12-07T03:35:24;100373.09;;;4.77;100.00
59825;BME280;45703;50.898;6.054;2022-12-07T03:37:55;100372.09;;;4.78;100.00
59825;BME280;45703;50.898;6.054;2022-12-07T03:40:33;100368.59;;;4.78;100.00
59825;BME280;45703;50.898;6.054;2022-12-07T03:43:00;100373.63;;;4.73;100.00
59825;BME280;45703;50.898;6.054;2022-12-07T03:45:37;100381.03;;;4.77;100.00
59825;BME280;45703;50.898;6.054;2022-12-07T03:48:08;100374.53;;;4.80;100.00
59825;BME280;45703;50.898;6.054;2022-12-07T03:51:21;100375.81;;;4.84;100.00
59825;BME280;45703;50.898;6.054;2022-12-07T03:53:57;100379.19;;;4.78;100.00
59825;BME280;45703;50.898;6.054;2022-12-07T03:56:25;100364.94;;;4.79;100.00
59825;BME280;45703;50.898;6.054;2022-12-07T03:58:52;100365.97;;;4.78;100.00
59825;BME280;45703;50.898;6.054;2022-12-07T04:01:18;100374.91;;;4.77;100.00
59825;BME280;45703;50.898;6.054;2022-12-07T04:03:43;100361.41;;;4.72;100.00
59825;BME280;45703;50.898;6.054;2022-12-07T04:06:09;100376.91;;;4.75;100.00
59825;BME280;45703;50.898;6.054;2022-12-07T04:08:34;100378.91;;;4.73;100.00
59825;BME280;45703;50.898;6.054;2022-12-07T04:10:59;100365.41;;;4.68;100.00
59825;BME280;45703;50.898;6.054;2022-12-07T04:13:25;100372.88;;;4.79;100.00
59825;BME280;45703;50.898;6.054;2022-12-07T04:15:50;100359.88;;;4.77;100.00
59825;BME280;45703;50.898;6.054;2022-12-07T04:18:15;100361.31;;;4.80;100.00
59825;BME280;45703;50.898;6.054;2022-12-07T04:20:41;100350.72;;;4.80;100.00
59825;BME280;45703;50.898;6.054;2022-12-07T04:23:06;100362.69;;;4.76;100.00
59825;BME280;45703;50.898;6.054;2022-12-07T04:25:32;100366.97;;;4.77;100.00
59825;BME280;45703;50.898;6.054;2022-12-07T04:27:57;100364.59;;;4.82;100.00
59825;BME280;45703;50.898;6.054;2022-12-07T04:30:22;100357.38;;;4.76;100.00
59825;BME280;45703;50.898;6.054;2022-12-07T04:32:48;100361.03;;;4.75;100.00
59825;BME280;45703;50.898;6.054;2022-12-07T04:35:13;100360.03;;;4.76;100.00
59825;BME280;45703;50.898;6.054;2022-12-07T04:37:38;100362.31;;;4.79;100.00
59825;BME280;45703;50.898;6.054;2022-12-07T04:40:07;100364.22;;;4.70;100.00
59825;BME280;45703;50.898;6.054;2022-12-07T04:42:32;100362.31;;;4.79;100.00
59825;BME280;45703;50.898;6.054;2022-12-07T04:44:58;100353.66;;;4.70;100.00
59825;BME280;45703;50.898;6.054;2022-12-07T04:47:23;100359.22;;;4.75;100.00
59825;BME280;45703;50.898;6.054;2022-12-07T04:49:48;100355.81;;;4.67;100.00
59825;BME280;45703;50.898;6.054;2022-12-07T04:52:14;100355.66;;;4.68;100.00
59825;BME280;45703;50.898;6.054;2022-12-07T04:54:39;100355.56;;;4.62;100.00
59825;BME280;45703;50.898;6.054;2022-12-07T04:57:04;100360.31;;;4.81;100.00
59825;BME280;45703;50.898;6.054;2022-12-07T04:59:30;100355.38;;;4.78;100.00
59825;BME280;45703;50.898;6.054;2022-12-07T05:01:55;100342.53;;;4.75;100.00
59825;BME280;45703;50.898;6.054;2022-12-07T05:04:20;100350.75;;;4.65;100.00
59825;BME280;45703;50.898;6.054;2022-12-07T05:06:46;100351.53;;;4.66;100.00
59825;BME280;45703;50.898;6.054;2022-12-07T05:09:11;100349.91;;;4.65;100.00
59825;BME280;45703;50.898;6.054;2022-12-07T05:11:37;100363.03;;;4.73;100.00
59825;BME280;45703;50.898;6.054;2022-12-07T05:14:25;100356.09;;;4.72;100.00
59825;BME280;45703;50.898;6.054;2022-12-07T05:16:51;100361.75;;;4.69;100.00
59825;BME280;45703;50.898;6.054;2022-12-07T05:19:18;100353.38;;;4.65;100.00
59825;BME280;45703;50.898;6.054;2022-12-07T05:21:44;100354.75;;;4.61;100.00
59825;BME280;45703;50.898;6.054;2022-12-07T05:24:12;100354.47;;;4.71;100.00
59825;BME280;45703;50.898;6.054;2022-12-07T05:26:37;100338.41;;;4.58;100.00
59825;BME280;45703;50.898;6.054;2022-12-07T05:29:03;100361.13;;;4.67;100.00
59825;BME280;45703;50.898;6.054;2022-12-07T05:31:29;100352.38;;;4.66;100.00
59825;BME280;45703;50.898;6.054;2022-12-07T05:33:54;100351.53;;;4.66;100.00
59825;BME280;45703;50.898;6.054;2022-12-07T05:36:20;100358.47;;;4.67;100.00
59825;BME280;45703;50.898;6.054;2022-12-07T05:38:46;100338.88;;;4.61;100.00
59825;BME280;45703;50.898;6.054;2022-12-07T05:41:14;100349.34;;;4.55;100.00
59825;BME280;45703;50.898;6.054;2022-12-07T05:43:58;100350.34;;;4.54;100.00
59825;BME280;45703;50.898;6.054;2022-12-07T05:46:23;100355.00;;;4.52;100.00
59825;BME280;45703;50.898;6.054;2022-12-07T05:48:49;100353.72;;;4.48;100.00
59825;BME280;45703;50.898;6.054;2022-12-07T05:51:14;100347.78;;;4.46;100.00
59825;BME280;45703;50.898;6.054;2022-12-07T05:53:40;100350.59;;;4.44;100.00
59825;BME280;45703;50.898;6.054;2022-12-07T05:56:05;100354.88;;;4.45;100.00
59825;BME280;45703;50.898;6.054;2022-12-07T05:58:31;100348.06;;;4.51;100.00
59825;BME280;45703;50.898;6.054;2022-12-07T06:01:14;100351.22;;;4.46;100.00
59825;BME280;45703;50.898;6.054;2022-12-07T06:03:40;100345.69;;;4.56;100.00
59825;BME280;45703;50.898;6.054;2022-12-07T06:06:05;100346.06;;;4.53;100.00
59825;BME280;45703;50.898;6.054;2022-12-07T06:08:30;100348.72;;;4.53;100.00
59825;BME280;45703;50.898;6.054;2022-12-07T06:10:55;100352.63;;;4.57;100.00
59825;BME280;45703;50.898;6.054;2022-12-07T06:13:39;100350.25;;;4.62;100.00
59825;BME280;45703;50.898;6.054;2022-12-07T06:16:05;100361.03;;;4.60;100.00
59825;BME280;45703;50.898;6.054;2022-12-07T06:18:31;100358.91;;;4.56;100.00
59825;BME280;45703;50.898;6.054;2022-12-07T06:20:56;100349.16;;;4.56;100.00
59825;BME280;45703;50.898;6.054;2022-12-07T06:23:21;100357.91;;;4.57;100.00
59825;BME280;45703;50.898;6.054;2022-12-07T06:25:47;100356.56;;;4.61;100.00
59825;BME280;45703;50.898;6.054;2022-12-07T06:28:12;100360.56;;;4.57;100.00
59825;BME280;45703;50.898;6.054;2022-12-07T06:30:37;100355.28;;;4.57;100.00
59825;BME280;45703;50.898;6.054;2022-12-07T06:33:03;100350.34;;;4.54;100.00
59825;BME280;45703;50.898;6.054;2022-12-07T06:35:28;100352.06;;;4.47;100.00
59825;BME280;45703;50.898;6.054;2022-12-07T06:37:53;100352.78;;;4.55;100.00
59825;BME280;45703;50.898;6.054;2022-12-07T06:40:19;100358.63;;;4.51;100.00
59825;BME280;45703;50.898;6.054;2022-12-07T06:42:44;100350.50;;;4.52;100.00
59825;BME280;45703;50.898;6.054;2022-12-07T06:45:10;100346.16;;;4.45;100.00
59825;BME280;45703;50.898;6.054;2022-12-07T06:47:35;100339.84;;;4.46;100.00
59825;BME280;45703;50.898;6.054;2022-12-07T06:50:00;100336.94;;;4.41;100.00
59825;BME280;45703;50.898;6.054;2022-12-07T06:52:26;100354.53;;;4.48;100.00
59825;BME280;45703;50.898;6.054;2022-12-07T06:54:51;100363.28;;;4.49;100.00
59825;BME280;45703;50.898;6.054;2022-12-07T06:57:16;100363.09;;;4.50;100.00
59825;BME280;45703;50.898;6.054;2022-12-07T06:59:42;100359.91;;;4.55;100.00
59825;BME280;45703;50.898;6.054;2022-12-07T07:02:08;100363.44;;;4.47;100.00
59825;BME280;45703;50.898;6.054;2022-12-07T07:04:34;100358.72;;;4.57;100.00
59825;BME280;45703;50.898;6.054;2022-12-07T07:06:59;100364.38;;;4.54;100.00
59825;BME280;45703;50.898;6.054;2022-12-07T07:09:24;100363.38;;;4.55;100.00
59825;BME280;45703;50.898;6.054;2022-12-07T07:11:51;100366.72;;;4.49;100.00
59825;BME280;45703;50.898;6.054;2022-12-07T07:14:16;100364.56;;;4.53;100.00
59825;BME280;45703;50.898;6.054;2022-12-07T07:16:44;100368.38;;;4.50;100.00
59825;BME280;45703;50.898;6.054;2022-12-07T07:19:09;100372.13;;;4.56;100.00
59825;BME280;45703;50.898;6.054;2022-12-07T07:21:36;100367.84;;;4.55;100.00
59825;BME280;45703;50.898;6.054;2022-12-07T07:24:01;100361.38;;;4.57;100.00
59825;BME280;45703;50.898;6.054;2022-12-07T07:26:27;100359.56;;;4.58;100.00
59825;BME280;45703;50.898;6.054;2022-12-07T07:28:52;100366.50;;;4.59;100.00
59825;BME280;45703;50.898;6.054;2022-12-07T07:31:17;100371.28;;;4.55;100.00
59825;BME280;45703;50.898;6.054;2022-12-07T07:33:43;100364.47;;;4.61;100.00
59825;BME280;45703;50.898;6.054;2022-12-07T07:36:09;100373.25;;;4.61;100.00
59825;BME280;45703;50.898;6.054;2022-12-07T07:38:35;100370.13;;;4.58;100.00
59825;BME280;45703;50.898;6.054;2022-12-07T07:41:00;100374.94;;;4.54;100.00
59825;BME280;45703;50.898;6.054;2022-12-07T07:43:25;100373.59;;;4.58;100.00
59825;BME280;45703;50.898;6.054;2022-12-07T07:45:51;100371.66;;;4.52;100.00
59825;BME280;45703;50.898;6.054;2022-12-07T07:48:16;100371.28;;;4.55;100.00
59825;BME280;45703;50.898;6.054;2022-12-07T07:50:42;100365.84;;;4.57;100.00
59825;BME280;45703;50.898;6.054;2022-12-07T07:53:07;100379.22;;;4.55;100.00
59825;BME280;45703;50.898;6.054;2022-12-07T07:55:33;100373.78;;;4.57;100.00
59825;BME280;45703;50.898;6.054;2022-12-07T07:57:58;100371.78;;;4.59;100.00
59825;BME280;45703;50.898;6.054;2022-12-07T08:00:24;100377.44;;;4.56;100.00
59825;BME280;45703;50.898;6.054;2022-12-07T08:02:49;100371.56;;;4.46;100.00
59825;BME280;45703;50.898;6.054;2022-12-07T08:05:15;100367.72;;;4.48;100.00
59825;BME280;45703;50.898;6.054;2022-12-07T08:07:41;100382.44;;;4.51;100.00
59825;BME280;45703;50.898;6.054;2022-12-07T08:10:07;100384.72;;;4.54;100.00
59825;BME280;45703;50.898;6.054;2022-12-07T08:12:36;100375.94;;;4.53;100.00
59825;BME280;45703;50.898;6.054;2022-12-07T08:15:03;100376.50;;;4.49;100.00
59825;BME280;45703;50.898;6.054;2022-12-07T08:17:28;100377.94;;;4.51;100.00
59825;BME280;45703;50.898;6.054;2022-12-07T08:19:53;100372.38;;;4.46;100.00
59825;BME280;45703;50.898;6.054;2022-12-07T08:22:19;100364.66;;;4.45;100.00
59825;BME280;45703;50.898;6.054;2022-12-07T08:24:44;100377.22;;;4.43;100.00
59825;BME280;45703;50.898;6.054;2022-12-07T08:27:10;100380.16;;;4.48;100.00
59825;BME280;45703;50.898;6.054;2022-12-07T08:29:35;100381.88;;;4.41;100.00
59825;BME280;45703;50.898;6.054;2022-12-07T08:32:01;100387.78;;;4.43;100.00
59825;BME280;45703;50.898;6.054;2022-12-07T08:34:26;100378.22;;;4.42;100.00
59825;BME280;45703;50.898;6.054;2022-12-07T08:36:52;100385.22;;;4.35;100.00
59825;BME280;45703;50.898;6.054;2022-12-07T08:39:17;100379.47;;;4.31;100.00
59825;BME280;45703;50.898;6.054;2022-12-07T08:41:43;100385.91;;;4.29;100.00
59825;BME280;45703;50.898;6.054;2022-12-07T08:44:08;100379.34;;;4.25;100.00
59825;BME280;45703;50.898;6.054;2022-12-07T08:46:53;100389.19;;;4.31;100.00
59825;BME280;45703;50.898;6.054;2022-12-07T08:49:31;100395.06;;;4.41;100.00
59825;BME280;45703;50.898;6.054;2022-12-07T08:51:58;100399.66;;;4.47;100.00
59825;BME280;45703;50.898;6.054;2022-12-07T08:54:24;100409.88;;;4.50;100.00
59825;BME280;45703;50.898;6.054;2022-12-07T08:56:50;100397.28;;;4.52;100.00
59825;BME280;45703;50.898;6.054;2022-12-07T08:59:19;100403.56;;;4.51;100.00
59825;BME280;45703;50.898;6.054;2022-12-07T09:01:45;100402.56;;;4.52;100.00
59825;BME280;45703;50.898;6.054;2022-12-07T09:04:11;100394.53;;;4.45;100.00
59825;BME280;45703;50.898;6.054;2022-12-07T09:06:37;100398.66;;;4.48;100.00
59825;BME280;45703;50.898;6.054;2022-12-07T09:09:03;100414.66;;;4.46;100.00
59825;BME280;45703;50.898;6.054;2022-12-07T09:11:28;100407.47;;;4.40;100.00
59825;BME280;45703;50.898;6.054;2022-12-07T09:13:54;100406.00;;;4.38;100.00
59825;BME280;45703;50.898;6.054;2022-12-07T09:16:19;100393.66;;;4.30;100.00
59825;BME280;45703;50.898;6.054;2022-12-07T09:18:44;100406.47;;;4.41;100.00
59825;BME280;45703;50.898;6.054;2022-12-07T09:21:10;100400.44;;;4.47;100.00
59825;BME280;45703;50.898;6.054;2022-12-07T09:23:35;100398.66;;;4.48;100.00
59825;BME280;45703;50.898;6.054;2022-12-07T09:26:01;100407.22;;;4.50;100.00
59825;BME280;45703;50.898;6.054;2022-12-07T09:28:27;100399.50;;;4.63;100.00
59825;BME280;45703;50.898;6.054;2022-12-07T09:30:53;100400.84;;;4.59;100.00
59825;BME280;45703;50.898;6.054;2022-12-07T09:33:18;100397.13;;;4.68;100.00
59825;BME280;45703;50.898;6.054;2022-12-07T09:35:47;100388.56;;;4.66;100.00
59825;BME280;45703;50.898;6.054;2022-12-07T09:38:14;100402.78;;;4.65;100.00
59825;BME280;45703;50.898;6.054;2022-12-07T09:40:40;100395.84;;;4.64;100.00
59825;BME280;45703;50.898;6.054;2022-12-07T09:43:21;100391.84;;;4.68;100.00
59825;BME280;45703;50.898;6.054;2022-12-07T09:45:51;100397.06;;;4.76;100.00
59825;BME280;45703;50.898;6.054;2022-12-07T09:48:21;100389.41;;;4.81;100.00
59825;BME280;45703;50.898;6.054;2022-12-07T09:50:48;100390.03;;;4.83;100.00
59825;BME280;45703;50.898;6.054;2022-12-07T09:53:36;100390.72;;;4.85;100.00
59825;BME280;45703;50.898;6.054;2022-12-07T09:56:02;100389.13;;;4.90;100.00
59825;BME280;45703;50.898;6.054;2022-12-07T09:58:30;100394.91;;;4.94;100.00
59825;BME280;45703;50.898;6.054;2022-12-07T10:01:17;100396.97;;;4.98;100.00
59825;BME280;45703;50.898;6.054;2022-12-07T10:04:16;100404.66;;;5.08;100.00
59825;BME280;45703;50.898;6.054;2022-12-07T10:06:43;100397.72;;;5.07;100.00
59825;BME280;45703;50.898;6.054;2022-12-07T10:09:13;100398.66;;;5.14;100.00
59825;BME280;45703;50.898;6.054;2022-12-07T10:14:23;100376.28;;;5.02;100.00
59825;BME280;45703;50.898;6.054;2022-12-07T10:16:48;100378.84;;;5.10;100.00
59825;BME280;45703;50.898;6.054;2022-12-07T10:19:26;100379.38;;;5.05;100.00
59825;BME280;45703;50.898;6.054;2022-12-07T10:22:13;100381.84;;;5.07;100.00
59825;BME280;45703;50.898;6.054;2022-12-07T10:24:40;100375.66;;;5.00;100.00
59825;BME280;45703;50.898;6.054;2022-12-07T10:27:19;100369.25;;;5.09;100.00
59825;BME280;45703;50.898;6.054;2022-12-07T10:29:50;100362.22;;;5.16;100.00
59825;BME280;45703;50.898;6.054;2022-12-07T10:34:41;100359.22;;;5.19;100.00
59825;BME280;45703;50.898;6.054;2022-12-07T10:39:42;100360.31;;;5.39;100.00
59825;BME280;45703;50.898;6.054;2022-12-07T10:42:16;100357.19;;;5.35;100.00
59825;BME280;45703;50.898;6.054;2022-12-07T10:44:43;100359.09;;;5.41;100.00
59825;BME280;45703;50.898;6.054;2022-12-07T10:52:52;100353.81;;;5.41;100.00
59825;BME280;45703;50.898;6.054;2022-12-07T10:55:24;100347.41;;;5.36;100.00
59825;BME280;45703;50.898;6.054;2022-12-07T11:01:01;100345.13;;;5.33;100.00
59825;BME280;45703;50.898;6.054;2022-12-07T11:03:44;100335.84;;;5.37;100.00
59825;BME280;45703;50.898;6.054;2022-12-07T11:06:38;100332.09;;;5.46;100.00
59825;BME280;45703;50.898;6.054;2022-12-07T11:12:05;100308.94;;;5.54;100.00
59825;BME280;45703;50.898;6.054;2022-12-07T11:15:09;100323.66;;;5.57;100.00
59825;BME280;45703;50.898;6.054;2022-12-07T11:20:43;100303.34;;;5.63;100.00
59825;BME280;45703;50.898;6.054;2022-12-07T11:26:11;100307.63;;;5.64;100.00
59825;BME280;45703;50.898;6.054;2022-12-07T11:34:56;100304.63;;;5.67;100.00
59825;BME280;45703;50.898;6.054;2022-12-07T11:36:54;100286.72;;;5.69;100.00
59825;BME280;45703;50.898;6.054;2022-12-07T11:39:33;100298.31;;;5.68;100.00
59825;BME280;45703;50.898;6.054;2022-12-07T11:42:06;100291.19;;;5.69;100.00
59825;BME280;45703;50.898;6.054;2022-12-07T11:47:39;100293.00;;;5.68;100.00
59825;BME280;45703;50.898;6.054;2022-12-07T11:50:26;100288.88;;;5.80;100.00
59825;BME280;45703;50.898;6.054;2022-12-07T11:53:03;100279.91;;;5.81;100.00
59825;BME280;45703;50.898;6.054;2022-12-07T11:55:57;100291.84;;;5.92;100.00
59825;BME280;45703;50.898;6.054;2022-12-07T12:06:30;100266.69;;;6.02;100.00
59825;BME280;45703;50.898;6.054;2022-12-07T12:22:20;100250.81;;;6.36;100.00
59825;BME280;45703;50.898;6.054;2022-12-07T12:24:51;100260.41;;;6.37;100.00
59825;BME280;45703;50.898;6.054;2022-12-07T12:27:23;100264.34;;;6.41;100.00
59825;BME280;45703;50.898;6.054;2022-12-07T12:29:55;100254.59;;;6.48;100.00
59825;BME280;45703;50.898;6.054;2022-12-07T12:35:21;100244.84;;;6.55;100.00
59825;BME280;45703;50.898;6.054;2022-12-07T12:37:48;100243.19;;;6.54;99.85
59825;BME280;45703;50.898;6.054;2022-12-07T12:42:50;100241.13;;;6.50;100.00
59825;BME280;45703;50.898;6.054;2022-12-07T12:45:32;100236.19;;;6.40;100.00
59825;BME280;45703;50.898;6.054;2022-12-07T12:48:02;100245.56;;;6.43;100.00
59825;BME280;45703;50.898;6.054;2022-12-07T12:50:35;100235.75;;;6.37;99.83
59825;BME280;45703;50.898;6.054;2022-12-07T12:53:27;100245.50;;;6.36;99.88
59825;BME280;45703;50.898;6.054;2022-12-07T12:59:24;100234.91;;;6.36;99.73
59825;BME280;45703;50.898;6.054;2022-12-07T13:01:56;100233.66;;;6.32;99.24
59825;BME280;45703;50.898;6.054;2022-12-07T13:04:49;100229.38;;;6.31;97.84
59825;BME280;45703;50.898;6.054;2022-12-07T13:10:42;100222.59;;;6.22;98.15
59825;BME280;45703;50.898;6.054;2022-12-07T13:15:48;100221.09;;;6.13;99.26
59825;BME280;45703;50.898;6.054;2022-12-07T13:20:59;100211.91;;;6.09;98.62
59825;BME280;45703;50.898;6.054;2022-12-07T13:28:22;100215.41;;;6.16;98.48
59825;BME280;45703;50.898;6.054;2022-12-07T13:33:30;100203.72;;;6.04;99.68
59825;BME280;45703;50.898;6.054;2022-12-07T13:35:56;100198.03;;;6.07;99.08
59825;BME280;45703;50.898;6.054;2022-12-07T13:38:27;100191.50;;;6.10;99.14
59825;BME280;45703;50.898;6.054;2022-12-07T13:41:25;100192.50;;;6.09;98.82
59825;BME280;45703;50.898;6.054;2022-12-07T13:44:13;100194.34;;;6.08;99.09
59825;BME280;45703;50.898;6.054;2022-12-07T13:46:59;100184.16;;;6.05;99.29
59825;BME280;45703;50.898;6.054;2022-12-07T13:49:28;100176.19;;;6.05;98.98
59825;BME280;45703;50.898;6.054;2022-12-07T13:52:06;100180.47;;;6.06;99.36
59825;BME280;45703;50.898;6.054;2022-12-07T13:54:32;100183.75;;;6.08;99.33
59825;BME280;45703;50.898;6.054;2022-12-07T13:56:58;100169.44;;;6.03;99.31
59825;BME280;45703;50.898;6.054;2022-12-07T13:59:24;100178.84;;;6.05;99.65
59825;BME280;45703;50.898;6.054;2022-12-07T14:01:51;100170.28;;;6.03;100.00
59825;BME280;45703;50.898;6.054;2022-12-07T14:04:19;100175.75;;;6.02;100.00
59825;BME280;45703;50.898;6.054;2022-12-07T14:06:52;100168.66;;;6.09;100.00
59825;BME280;45703;50.898;6.054;2022-12-07T14:09:20;100165.84;;;6.10;99.62
59825;BME280;45703;50.898;6.054;2022-12-07T14:11:48;100168.25;;;6.05;99.66
59825;BME280;45703;50.898;6.054;2022-12-07T14:14:35;100165.59;;;6.05;99.80
59825;BME280;45703;50.898;6.054;2022-12-07T14:19:56;100165.78;;;6.04;100.00
59825;BME280;45703;50.898;6.054;2022-12-07T14:27:31;100159.69;;;6.03;100.00
59825;BME280;45703;50.898;6.054;2022-12-07T14:29:59;100155.63;;;6.07;99.37
59825;BME280;45703;50.898;6.054;2022-12-07T14:32:27;100159.28;;;6.06;99.66
59825;BME280;45703;50.898;6.054;2022-12-07T14:35:10;100156.41;;;6.01;99.90
59825;BME280;45703;50.898;6.054;2022-12-07T14:37:36;100154.38;;;6.03;99.90
59825;BME280;45703;50.898;6.054;2022-12-07T14:40:02;100147.44;;;6.02;99.71
59825;BME280;45703;50.898;6.054;2022-12-07T14:42:29;100147.22;;;5.97;100.00
59825;BME280;45703;50.898;6.054;2022-12-07T14:44:56;100145.34;;;5.91;100.00